Wetterdaten: Woche 29.08.05 - 04.09.05 (KW35)
Datum Zeit Temperatur Luftfeuchte Luftdruck Niederschlag Windrichtung Wind
29.08.2005 00:00 13,6 C 83 % 1024 hPa 0,0 l/m W-NW 8,1 km/h (2 Bft)
29.08.2005 01:00 13,2 C 84 % 1023 hPa 0,0 l/m NW 9,5 km/h (2 Bft)
29.08.2005 02:00 12,7 C 85 % 1024 hPa 0,0 l/m NW 8,4 km/h (2 Bft)
29.08.2005 03:00 12,4 C 86 % 1023 hPa 0,0 l/m W-NW 8,4 km/h (2 Bft)
29.08.2005 04:00 12,2 C 84 % 1023 hPa 0,0 l/m N-NW 6,9 km/h (2 Bft)
29.08.2005 05:00 11,7 C 85 % 1023 hPa 0,0 l/m N-NW 4,4 km/h (1 Bft)
29.08.2005 06:00 11,1 C 88 % 1023 hPa 0,0 l/m W-NW 7,4 km/h (2 Bft)
29.08.2005 07:00 11,4 C 89 % 1024 hPa 0,0 l/m NW 8,2 km/h (2 Bft)
29.08.2005 08:00 13,0 C 86 % 1024 hPa 0,0 l/m N 9,3 km/h (2 Bft)
29.08.2005 09:00 15,3 C 82 % 1024 hPa 0,0 l/m N-NO 10,7 km/h (2 Bft)
29.08.2005 10:00 19,0 C 68 % 1023 hPa 0,0 l/m N-NO 11,3 km/h (2 Bft)
29.08.2005 11:00 22,1 C 55 % 1023 hPa 0,0 l/m N-NO 14,7 km/h (3 Bft)
29.08.2005 12:00 23,4 C 51 % 1023 hPa 0,0 l/m N-NO 15,1 km/h (3 Bft)
29.08.2005 13:00 24,4 C 48 % 1023 hPa 0,0 l/m NO 14,9 km/h (3 Bft)
29.08.2005 14:00 25,8 C 46 % 1023 hPa 0,0 l/m O 15,1 km/h (3 Bft)
29.08.2005 15:00 26,4 C 44 % 1023 hPa 0,0 l/m NO 10,1 km/h (2 Bft)
29.08.2005 16:00 26,3 C 43 % 1023 hPa 0,0 l/m NO 1,2 km/h (1 Bft)
29.08.2005 17:00 26,1 C 43 % 1023 hPa 0,0 l/m N-NO 1,0 km/h (0 Bft)
29.08.2005 18:00 26,1 C 44 % 1023 hPa 0,0 l/m NO 10,0 km/h (2 Bft)
29.08.2005 19:00 23,7 C 52 % 1024 hPa 0,0 l/m O-NO 3,9 km/h (1 Bft)
29.08.2005 20:00 20,8 C 64 % 1024 hPa 0,0 l/m N 0,0 km/h (0 Bft)
29.08.2005 21:00 19,2 C 70 % 1025 hPa 0,0 l/m N 0,0 km/h (0 Bft)
29.08.2005 22:00 17,9 C 76 % 1025 hPa 0,0 l/m N 0,0 km/h (0 Bft)
29.08.2005 23:00 16,7 C 81 % 1025 hPa 0,0 l/m N 0,0 km/h (0 Bft)
30.08.2005 00:00 15,9 C 85 % 1025 hPa 0,0 l/m W-NW 1,4 km/h (1 Bft)
30.08.2005 01:00 15,6 C 88 % 1025 hPa 0,0 l/m W-NW 3,9 km/h (1 Bft)
30.08.2005 02:00 15,4 C 89 % 1025 hPa 0,0 l/m NW 0,5 km/h (0 Bft)
30.08.2005 03:00 14,7 C 91 % 1025 hPa 0,0 l/m NW 3,7 km/h (1 Bft)
30.08.2005 04:00 14,6 C 93 % 1025 hPa 0,0 l/m NW 2,9 km/h (1 Bft)
30.08.2005 05:00 14,1 C 94 % 1025 hPa 0,0 l/m NW 0,9 km/h (0 Bft)
30.08.2005 06:00 13,8 C 95 % 1025 hPa 0,0 l/m N 0,0 km/h (0 Bft)
30.08.2005 07:00 14,0 C 96 % 1025 hPa 0,0 l/m NW 5,2 km/h (1 Bft)
30.08.2005 08:00 15,2 C 96 % 1026 hPa 0,0 l/m N 3,6 km/h (1 Bft)
30.08.2005 09:00 17,6 C 90 % 1026 hPa 0,0 l/m N-NO 6,9 km/h (2 Bft)
30.08.2005 10:00 21,5 C 72 % 1026 hPa 0,0 l/m N 11,5 km/h (2 Bft)
30.08.2005 11:00 24,4 C 56 % 1025 hPa 0,0 l/m NO 16,0 km/h (3 Bft)
30.08.2005 12:00 25,6 C 50 % 1025 hPa 0,0 l/m NO 17,1 km/h (3 Bft)
30.08.2005 13:00 26,7 C 46 % 1025 hPa 0,0 l/m N-NO 14,0 km/h (3 Bft)
30.08.2005 14:00 27,7 C 44 % 1024 hPa 0,0 l/m N-NO 9,2 km/h (2 Bft)
30.08.2005 15:00 27,9 C 43 % 1024 hPa 0,0 l/m N-NO 4,2 km/h (1 Bft)
30.08.2005 16:00 27,3 C 43 % 1023 hPa 0,0 l/m O-NO 5,9 km/h (2 Bft)
30.08.2005 17:00 26,7 C 43 % 1023 hPa 0,0 l/m O-NO 12,4 km/h (3 Bft)
30.08.2005 18:00 26,2 C 44 % 1023 hPa 0,0 l/m O 14,9 km/h (3 Bft)
30.08.2005 19:00 24,3 C 51 % 1023 hPa 0,0 l/m NO 5,4 km/h (1 Bft)
30.08.2005 20:00 22,0 C 62 % 1023 hPa 0,0 l/m N 0,5 km/h (0 Bft)
30.08.2005 21:00 19,8 C 69 % 1023 hPa 0,0 l/m N 0,0 km/h (0 Bft)
30.08.2005 22:00 18,3 C 75 % 1023 hPa 0,0 l/m N 0,0 km/h (0 Bft)
30.08.2005 23:00 17,4 C 80 % 1023 hPa 0,0 l/m NW 2,8 km/h (1 Bft)
31.08.2005 00:00 16,8 C 84 % 1022 hPa 0,0 l/m NW 3,6 km/h (1 Bft)
31.08.2005 01:00 16,3 C 86 % 1022 hPa 0,0 l/m NW 4,0 km/h (1 Bft)
31.08.2005 02:00 15,7 C 90 % 1022 hPa 0,0 l/m N 0,2 km/h (0 Bft)
31.08.2005 03:00 15,2 C 92 % 1021 hPa 0,0 l/m NW 3,0 km/h (1 Bft)
31.08.2005 04:00 14,8 C 95 % 1021 hPa 0,0 l/m NW 1,9 km/h (1 Bft)
31.08.2005 05:00 14,5 C 96 % 1020 hPa 0,0 l/m NW 5,0 km/h (1 Bft)
31.08.2005 06:00 14,2 C 97 % 1020 hPa 0,0 l/m NW 4,2 km/h (1 Bft)
31.08.2005 07:00 14,2 C 97 % 1020 hPa 0,0 l/m N 0,0 km/h (0 Bft)
31.08.2005 08:00 15,1 C 98 % 1020 hPa 0,0 l/m N-NO 1,1 km/h (0 Bft)
31.08.2005 09:00 16,9 C 95 % 1020 hPa 0,0 l/m O-SO 2,2 km/h (1 Bft)
31.08.2005 10:00 19,9 C 80 % 1020 hPa 0,0 l/m N 4,3 km/h (1 Bft)
31.08.2005 11:00 22,6 C 68 % 1020 hPa 0,0 l/m O 7,3 km/h (2 Bft)
31.08.2005 12:00 24,2 C 63 % 1020 hPa 0,0 l/m W-SW 4,3 km/h (1 Bft)
31.08.2005 13:00 25,6 C 56 % 1019 hPa 0,0 l/m NW 5,2 km/h (1 Bft)
31.08.2005 14:00 27,2 C 49 % 1019 hPa 0,0 l/m S 5,7 km/h (1 Bft)
31.08.2005 15:00 28,2 C 45 % 1018 hPa 0,0 l/m O 3,2 km/h (1 Bft)
31.08.2005 16:00 27,7 C 44 % 1018 hPa 0,0 l/m SO 2,1 km/h (1 Bft)
31.08.2005 17:00 27,6 C 44 % 1017 hPa 0,0 l/m S-SO 1,3 km/h (1 Bft)
31.08.2005 18:00 27,8 C 45 % 1017 hPa 0,0 l/m N-NO 4,9 km/h (1 Bft)
31.08.2005 19:00 25,2 C 56 % 1017 hPa 0,0 l/m N-NO 3,5 km/h (1 Bft)
31.08.2005 20:00 22,4 C 68 % 1017 hPa 0,0 l/m N 0,0 km/h (0 Bft)
31.08.2005 21:00 20,2 C 79 % 1017 hPa 0,0 l/m N 0,0 km/h (0 Bft)
31.08.2005 22:00 19,3 C 85 % 1017 hPa 0,0 l/m N 0,0 km/h (0 Bft)
31.08.2005 23:00 18,7 C 85 % 1017 hPa 0,0 l/m N 0,0 km/h (0 Bft)
01.09.2005 00:00 17,7 C 87 % 1017 hPa 0,0 l/m N 0,0 km/h (0 Bft)
01.09.2005 01:00 16,8 C 90 % 1017 hPa 0,0 l/m N 0,0 km/h (0 Bft)
01.09.2005 02:00 16,1 C 92 % 1017 hPa 0,0 l/m N 0,0 km/h (0 Bft)
01.09.2005 03:00 15,4 C 93 % 1017 hPa 0,0 l/m N 0,0 km/h (0 Bft)
01.09.2005 04:00 14,7 C 94 % 1017 hPa 0,0 l/m N 0,0 km/h (0 Bft)
01.09.2005 05:00 14,1 C 95 % 1017 hPa 0,0 l/m N 0,0 km/h (0 Bft)
01.09.2005 06:00 13,7 C 97 % 1017 hPa 0,0 l/m N 0,0 km/h (0 Bft)
01.09.2005 07:00 13,7 C 97 % 1017 hPa 0,0 l/m N 0,0 km/h (0 Bft)
01.09.2005 08:00 15,0 C 99 % 1018 hPa 0,0 l/m S-SW 1,1 km/h (1 Bft)
01.09.2005 09:00 18,0 C 95 % 1017 hPa 0,0 l/m S 9,3 km/h (2 Bft)
01.09.2005 10:00 21,7 C 73 % 1018 hPa 0,0 l/m S 12,0 km/h (2 Bft)
01.09.2005 11:00 24,5 C 63 % 1018 hPa 0,0 l/m S 12,5 km/h (3 Bft)
01.09.2005 12:00 26,4 C 50 % 1018 hPa 0,0 l/m S 14,9 km/h (3 Bft)
01.09.2005 13:00 27,5 C 42 % 1018 hPa 0,0 l/m S-SW 14,0 km/h (3 Bft)
01.09.2005 14:00 28,5 C 40 % 1018 hPa 0,0 l/m SW 12,8 km/h (3 Bft)
01.09.2005 15:00 28,7 C 43 % 1018 hPa 0,0 l/m S 10,4 km/h (2 Bft)
01.09.2005 16:00 26,8 C 46 % 1018 hPa 0,0 l/m N-NW 11,2 km/h (2 Bft)
01.09.2005 17:00 27,2 C 44 % 1018 hPa 0,0 l/m N-NW 6,9 km/h (2 Bft)
01.09.2005 18:00 27,4 C 44 % 1018 hPa 0,0 l/m W 3,5 km/h (1 Bft)
01.09.2005 19:00 24,4 C 58 % 1018 hPa 0,0 l/m N 0,0 km/h (0 Bft)
01.09.2005 20:00 21,9 C 68 % 1019 hPa 0,0 l/m W-NW 3,3 km/h (1 Bft)
01.09.2005 21:00 20,8 C 74 % 1020 hPa 0,0 l/m W-NW 1,3 km/h (1 Bft)
01.09.2005 22:00 19,9 C 80 % 1020 hPa 0,0 l/m N 0,0 km/h (0 Bft)
01.09.2005 23:00 19,2 C 87 % 1020 hPa 0,0 l/m NW 5,5 km/h (1 Bft)
02.09.2005 00:00 19,1 C 88 % 1021 hPa 0,0 l/m W-NW 3,4 km/h (1 Bft)
02.09.2005 01:00 18,6 C 88 % 1021 hPa 0,0 l/m NW 7,8 km/h (2 Bft)
02.09.2005 02:00 18,1 C 89 % 1021 hPa 0,0 l/m W-NW 1,9 km/h (1 Bft)
02.09.2005 03:00 17,7 C 91 % 1021 hPa 0,0 l/m N 0,2 km/h (0 Bft)
02.09.2005 04:00 17,8 C 94 % 1022 hPa 0,0 l/m W 9,9 km/h (2 Bft)
02.09.2005 05:00 17,9 C 87 % 1022 hPa 2,0 l/m N 7,5 km/h (2 Bft)
02.09.2005 06:00 16,7 C 93 % 1022 hPa 1,0 l/m N-NW 1,1 km/h (1 Bft)
02.09.2005 07:00 16,4 C 96 % 1023 hPa 0,0 l/m N 0,0 km/h (0 Bft)
02.09.2005 08:00 16,5 C 97 % 1023 hPa 0,0 l/m W 1,0 km/h (0 Bft)
02.09.2005 09:00 17,1 C 98 % 1024 hPa 0,0 l/m NW 1,8 km/h (1 Bft)
02.09.2005 10:00 18,9 C 91 % 1024 hPa 0,0 l/m NW 1,5 km/h (1 Bft)
02.09.2005 11:00 21,3 C 73 % 1025 hPa 0,0 l/m O 4,2 km/h (1 Bft)
02.09.2005 12:00 23,2 C 60 % 1025 hPa 0,0 l/m W 3,9 km/h (1 Bft)
02.09.2005 13:00 24,8 C 55 % 1024 hPa 0,0 l/m N-NO 7,1 km/h (2 Bft)
02.09.2005 14:00 26,5 C 50 % 1024 hPa 0,0 l/m O-NO 3,2 km/h (1 Bft)
02.09.2005 15:00 26,9 C 46 % 1024 hPa 0,0 l/m NO 1,8 km/h (1 Bft)
02.09.2005 16:00 26,5 C 48 % 1024 hPa 0,0 l/m O 3,6 km/h (1 Bft)
02.09.2005 17:00 24,9 C 54 % 1024 hPa 0,0 l/m N-NO 4,2 km/h (1 Bft)
02.09.2005 18:00 23,4 C 63 % 1024 hPa 0,0 l/m N 4,0 km/h (1 Bft)
02.09.2005 19:00 22,3 C 71 % 1024 hPa 0,0 l/m N-NO 3,9 km/h (1 Bft)
02.09.2005 20:00 20,9 C 77 % 1025 hPa 0,0 l/m N 0,0 km/h (0 Bft)
02.09.2005 21:00 19,7 C 82 % 1025 hPa 0,0 l/m W-NW 0,0 km/h (0 Bft)
02.09.2005 22:00 18,9 C 86 % 1026 hPa 0,0 l/m NW 4,9 km/h (1 Bft)
02.09.2005 23:00 18,1 C 85 % 1025 hPa 0,0 l/m NW 1,2 km/h (1 Bft)
03.09.2005 00:00 17,5 C 88 % 1025 hPa 0,0 l/m NW 2,4 km/h (1 Bft)
03.09.2005 01:00 17,1 C 91 % 1025 hPa 0,0 l/m NW 0,5 km/h (0 Bft)
03.09.2005 02:00 16,7 C 94 % 1025 hPa 0,0 l/m NW 0,6 km/h (0 Bft)
03.09.2005 03:00 16,7 C 97 % 1025 hPa 0,0 l/m NW 5,2 km/h (1 Bft)
03.09.2005 04:00 16,4 C 98 % 1025 hPa 0,0 l/m NW 2,7 km/h (1 Bft)
03.09.2005 05:00 16,2 C 98 % 1025 hPa 0,0 l/m NW 3,0 km/h (1 Bft)
03.09.2005 06:00 16,4 C 99 % 1026 hPa 0,0 l/m N-NO 5,8 km/h (2 Bft)
03.09.2005 07:00 16,5 C 100 % 1026 hPa 0,0 l/m N-NO 10,4 km/h (2 Bft)
03.09.2005 08:00 16,9 C 100 % 1026 hPa 0,0 l/m N-NO 10,0 km/h (2 Bft)
03.09.2005 09:00 17,6 C 100 % 1026 hPa 0,0 l/m N-NO 10,2 km/h (2 Bft)
03.09.2005 10:00 18,7 C 95 % 1027 hPa 0,0 l/m N 10,9 km/h (2 Bft)
03.09.2005 11:00 19,4 C 87 % 1027 hPa 0,0 l/m N 13,5 km/h (3 Bft)
03.09.2005 12:00 20,6 C 80 % 1027 hPa 0,0 l/m N-NO 15,5 km/h (3 Bft)
03.09.2005 13:00 22,0 C 73 % 1027 hPa 0,0 l/m N-NO 16,6 km/h (3 Bft)
03.09.2005 14:00 23,6 C 67 % 1027 hPa 0,0 l/m O-NO 8,9 km/h (2 Bft)
03.09.2005 15:00 24,1 C 64 % 1026 hPa 0,0 l/m N-NO 3,7 km/h (1 Bft)
03.09.2005 16:00 24,1 C 63 % 1026 hPa 0,0 l/m N-NO 11,4 km/h (2 Bft)
03.09.2005 17:00 23,8 C 63 % 1025 hPa 0,0 l/m O-NO 12,6 km/h (3 Bft)
03.09.2005 18:00 23,3 C 64 % 1025 hPa 0,0 l/m O-NO 8,8 km/h (2 Bft)
03.09.2005 19:00 22,0 C 68 % 1025 hPa 0,0 l/m NO 8,5 km/h (2 Bft)
03.09.2005 20:00 20,4 C 75 % 1026 hPa 0,0 l/m N 6,9 km/h (2 Bft)
03.09.2005 21:00 19,4 C 81 % 1026 hPa 0,0 l/m N-NO 7,5 km/h (2 Bft)
03.09.2005 22:00 18,6 C 84 % 1026 hPa 0,0 l/m N 2,8 km/h (1 Bft)
03.09.2005 23:00 17,7 C 89 % 1026 hPa 0,0 l/m N 4,2 km/h (1 Bft)
04.09.2005 00:00 17,0 C 92 % 1026 hPa 0,0 l/m NW 4,8 km/h (1 Bft)
04.09.2005 01:00 16,4 C 95 % 1026 hPa 0,0 l/m N-NW 5,1 km/h (1 Bft)
04.09.2005 02:00 16,0 C 96 % 1025 hPa 0,0 l/m N 6,0 km/h (2 Bft)
04.09.2005 03:00 15,5 C 97 % 1025 hPa 0,0 l/m N 2,6 km/h (1 Bft)
04.09.2005 04:00 15,5 C 98 % 1025 hPa 0,0 l/m N 3,5 km/h (1 Bft)
04.09.2005 05:00 15,7 C 99 % 1025 hPa 0,0 l/m N-NO 8,9 km/h (2 Bft)
04.09.2005 06:00 15,7 C 98 % 1025 hPa 0,0 l/m N-NO 8,8 km/h (2 Bft)
04.09.2005 07:00 15,8 C 96 % 1025 hPa 0,0 l/m N-NO 8,6 km/h (2 Bft)
04.09.2005 08:00 16,1 C 93 % 1025 hPa 0,0 l/m N-NO 11,5 km/h (2 Bft)
04.09.2005 09:00 16,4 C 87 % 1025 hPa 0,0 l/m N-NO 12,8 km/h (3 Bft)
04.09.2005 10:00 17,4 C 82 % 1025 hPa 0,0 l/m O-NO 12,7 km/h (3 Bft)
04.09.2005 11:00 20,0 C 70 % 1025 hPa 0,0 l/m O-NO 14,8 km/h (3 Bft)
04.09.2005 12:00 22,0 C 62 % 1025 hPa 0,0 l/m NO 14,4 km/h (3 Bft)
04.09.2005 13:00 23,4 C 54 % 1024 hPa 0,0 l/m N-NO 12,4 km/h (3 Bft)
04.09.2005 14:00 24,7 C 49 % 1024 hPa 0,0 l/m NO 14,7 km/h (3 Bft)
04.09.2005 15:00 24,9 C 47 % 1023 hPa 0,0 l/m N-NO 17,3 km/h (3 Bft)
04.09.2005 16:00 24,0 C 46 % 1023 hPa 0,0 l/m NO 15,6 km/h (3 Bft)
04.09.2005 17:00 23,5 C 48 % 1023 hPa 0,0 l/m NO 11,6 km/h (2 Bft)
04.09.2005 18:00 22,9 C 50 % 1022 hPa 0,0 l/m O-NO 12,4 km/h (3 Bft)
04.09.2005 19:00 21,0 C 55 % 1022 hPa 0,0 l/m O-NO 8,9 km/h (2 Bft)
04.09.2005 20:00 19,3 C 58 % 1022 hPa 0,0 l/m N-NO 7,7 km/h (2 Bft)
04.09.2005 21:00 17,8 C 63 % 1022 hPa 0,0 l/m N-NO 8,0 km/h (2 Bft)
04.09.2005 22:00 16,6 C 67 % 1022 hPa 0,0 l/m N 5,8 km/h (2 Bft)
04.09.2005 23:00 15,2 C 71 % 1022 hPa 0,0 l/m N 4,2 km/h (1 Bft)
Min-Datum _ 29.08.05 01.09.05 31.08.05 - - 29.08.05
_ Min-Zeit 06:37 14:13 16:15 - - 00:52
Minimum _ 11,0 C 37 % 1017 hPa - - 0,0 km/h (0 Bft)
Max-Datum _ 01.09.05 01.09.05 03.09.05 02.09.05 - 01.09.05
_ Max-Zeit 15:42 09:06 10:30 05:43 - 12:45
Maximum _ 29,1 C 100 % 1027 hPa 2,0 l/m - 31,8 km/h
S (5 Bft)
Durchschnitt _ 19,8 C 75 % 1023 hPa #3,0 l/m N-NO 6,0 km/h (2 Bft)

Durchschnitt Minimum Temp.19,3 C
Durchschnitt Maximum Temp.20,4 C